الصفحة الرئيسية
METAR-TAF:

METAR-TAF

مطار :

كوالا ترغكانو, ماليزيا

دائرة عرض: 05-22-53N, خط طول: 103-06-17E, ارتفاع: 6 متر

مراقبة الطقس الحالي

تاريخ ووقت الإصدار 1ساعة و 15 دقيقة قبل الساعة 03:00UTC
ريح 4 عقدةمن اتجاهات متغيرة
درجة الحرارة 33°درجة مئوية
الرطوبة 63%
ضغط 1007 hPa
الرؤية 10 كم أو أكثر
غيوم قليلة على ارتفاع 2000 قدم

METAR: WMKN 190300Z VRB04KT 9999 FEW020 33/25 Q1007

زمن: 12:15 (04:15 UTC)

توقعات

تاريخ ووقت الإصدار 5ساعات و 15 دقيقة قبل الساعة 23:00UTC
التوقعات صالحة من19 الساعة 00 UTC إلى 20 الساعة 00 UTC
ريح 3 عقدةمن اتجاهات متغيرة
الرؤية 10 كم أو أكثر
غيوم قليلة على ارتفاع 1800 قدم
مؤقت
من 19 الساعة 06 UTC إلى 19 الساعة 10 UTC
ريح 6 عقدة من الشمال الشرقي
الرؤية: 7000 متر
غيوم قليلة على ارتفاع 1700 قدم, مزنة ركامية.
عاصفة رعدية, مطر خفيف,

TAF: WMKN 182300Z 1900/2000 VRB03KT 9999 FEW018 TEMPO 1906/1910 05006KT 7000 -TSRA FEW017CB

أرصاد الطقس والتوقعات من أكثر من 4000 مطار (تقارير الطقس للمطار METAR والتنبؤ بالطقس بالمطارTAF).

المحطات المتاحة هي النقط الصفراء والحمراء على الخريطة.

حرك المؤشر فوق النقطة لمعرفة اسم المحطة.

ثم انقر لمعرفة أرصاد وتوقعات الطقس.

لتغيير الخارطة: اضغط على الأزرار الخضراء مع رمز الصليب الأسود للتكبير. على الزر الأخضر مع شرطة للتصغير، أو على الأسهم الخضراء للخرائط المجاورة.


METAR-TAF: